createdAt,value
2019-06-01T00:03:30.362Z,15.90
2019-06-01T00:08:24.111Z,16.00
2019-06-01T00:13:18.335Z,15.80
2019-06-01T00:18:12.105Z,15.80
2019-06-01T00:23:09.712Z,15.70
2019-06-01T00:28:05.302Z,15.70
2019-06-01T00:32:59.207Z,15.70
2019-06-01T00:37:52.837Z,15.60
2019-06-01T00:42:48.209Z,15.50
2019-06-01T00:47:42.724Z,15.60
2019-06-01T00:52:37.667Z,15.50
2019-06-01T00:57:31.343Z,15.40
2019-06-01T01:02:26.786Z,15.30
2019-06-01T01:07:21.992Z,15.30
2019-06-01T01:12:16.178Z,15.30
2019-06-01T01:17:10.288Z,15.20
2019-06-01T01:22:05.703Z,15.10
2019-06-01T01:26:59.961Z,15.20
2019-06-01T01:31:55.616Z,15.10
2019-06-01T01:36:52.717Z,15.20
2019-06-01T01:41:49.964Z,15.30
2019-06-01T01:46:43.801Z,15.30
2019-06-01T01:51:40.435Z,15.20
2019-06-01T01:56:34.195Z,15.20
2019-06-01T02:01:28.504Z,15.30
2019-06-01T02:06:23.738Z,15.20
2019-06-01T02:11:19.184Z,15.20
2019-06-01T02:16:13.553Z,15.20
2019-06-01T02:21:07.853Z,15.30
2019-06-01T02:26:02.905Z,15.30
2019-06-01T02:30:57.918Z,15.30
2019-06-01T02:35:51.922Z,15.30
2019-06-01T02:40:46.265Z,15.20
2019-06-01T02:45:39.989Z,15.20
2019-06-01T02:50:34.470Z,15.30
2019-06-01T02:55:28.264Z,15.30
2019-06-01T03:00:49.051Z,15.40
2019-06-01T03:05:45.118Z,15.50
2019-06-01T03:10:40.245Z,15.60
2019-06-01T03:15:36.588Z,15.60
2019-06-01T03:20:33.323Z,15.60
2019-06-01T03:25:29.170Z,15.60
2019-06-01T03:30:38.541Z,15.80
2019-06-01T03:35:32.399Z,15.80
2019-06-01T03:40:27.134Z,15.90
2019-06-01T03:45:20.935Z,15.90
2019-06-01T03:50:15.599Z,16.00
2019-06-01T03:55:12.057Z,16.10
2019-06-01T04:00:09.440Z,16.10
2019-06-01T04:05:05.488Z,16.10
2019-06-01T04:10:03.993Z,16.10
2019-06-01T04:14:58.698Z,16.30
2019-06-01T04:19:55.148Z,16.50
2019-06-01T04:24:49.385Z,17.20
2019-06-01T04:29:43.342Z,18.40
2019-06-01T04:34:37.640Z,19.40
2019-06-01T04:39:32.040Z,20.40
2019-06-01T04:44:26.726Z,21.20
2019-06-01T04:49:21.260Z,21.70
2019-06-01T04:54:16.011Z,22.10
2019-06-01T04:59:10.938Z,22.40
2019-06-01T05:04:05.541Z,23.50
2019-06-01T05:09:00.845Z,24.10
2019-06-01T05:13:54.788Z,25.10
2019-06-01T05:18:50.036Z,25.20
2019-06-01T05:23:45.859Z,26.00
2019-06-01T05:28:39.714Z,26.10
2019-06-01T05:33:37.474Z,26.00
2019-06-01T05:38:28.867Z,26.50
2019-06-01T05:43:24.219Z,27.40
2019-06-01T05:48:25.034Z,27.60
2019-06-01T05:53:14.550Z,28.20
2019-06-01T05:58:09.028Z,27.90
2019-06-01T06:03:02.809Z,28.90
2019-06-01T06:07:59.886Z,30.60
2019-06-01T06:12:54.944Z,31.60
2019-06-01T06:17:48.920Z,33.10
2019-06-01T06:22:43.052Z,34.00
2019-06-01T06:27:37.615Z,35.00
2019-06-01T06:32:31.789Z,35.50
2019-06-01T06:37:26.498Z,35.70
2019-06-01T06:42:22.378Z,35.90
2019-06-01T06:47:16.938Z,37.00
2019-06-01T06:52:11.959Z,38.40
2019-06-01T06:57:06.144Z,39.10
2019-06-01T07:01:59.770Z,38.90
2019-06-01T07:11:47.229Z,41.00
2019-06-01T07:16:41.882Z,41.70
2019-06-01T07:21:36.656Z,41.60
2019-06-01T07:26:32.367Z,42.30
2019-06-01T07:31:28.368Z,42.70
2019-06-01T07:36:22.721Z,44.90
2019-06-01T07:41:17.813Z,46.00
2019-06-01T07:46:12.224Z,45.40
2019-06-01T07:51:07.713Z,46.40
2019-06-01T07:56:02.213Z,47.60
2019-06-01T08:00:56.967Z,47.90
2019-06-01T08:05:54.416Z,46.90
2019-06-01T08:10:49.052Z,45.40
2019-06-01T08:15:44.062Z,43.50
2019-06-01T08:20:38.233Z,41.60
2019-06-01T08:25:32.777Z,44.40
2019-06-01T08:30:28.541Z,46.00
2019-06-01T08:35:23.107Z,47.90
2019-06-01T08:40:18.967Z,49.30
2019-06-01T08:45:15.089Z,49.80
2019-06-01T08:50:09.540Z,45.90
2019-06-01T08:55:04.504Z,42.60
2019-06-01T09:00:01.059Z,41.00
2019-06-01T09:04:58.030Z,44.90
2019-06-01T09:09:52.185Z,46.70
2019-06-01T09:14:46.871Z,48.70
2019-06-01T09:19:41.113Z,48.60
2019-06-01T09:24:36.259Z,47.90
2019-06-01T09:29:32.101Z,49.60
2019-06-01T09:34:28.310Z,49.70
2019-06-01T09:39:23.074Z,50.60
2019-06-01T09:44:19.884Z,51.20
2019-06-01T09:49:14.776Z,50.60
2019-06-01T09:54:09.788Z,50.80
2019-06-01T09:59:04.029Z,50.40
2019-06-01T10:03:58.120Z,50.30
2019-06-01T10:13:46.171Z,52.30
2019-06-01T10:18:42.964Z,52.00
2019-06-01T10:23:38.342Z,51.60
2019-06-01T10:28:33.507Z,50.80
2019-06-01T10:33:28.480Z,50.50
2019-06-01T10:38:23.135Z,50.70
2019-06-01T10:43:17.603Z,50.50
2019-06-01T10:48:13.672Z,50.70
2019-06-01T10:53:09.129Z,48.50
2019-06-01T10:58:04.686Z,47.10
2019-06-01T11:02:59.144Z,45.70
2019-06-01T11:07:53.333Z,44.40
2019-06-01T11:12:49.666Z,41.50
2019-06-01T11:17:43.282Z,39.10
2019-06-01T11:22:37.680Z,36.50
2019-06-01T11:27:33.709Z,35.30
2019-06-01T11:32:28.316Z,34.70
2019-06-01T11:37:22.922Z,34.20
2019-06-01T11:42:20.090Z,34.10
2019-06-01T11:47:14.457Z,34.10
2019-06-01T11:52:10.531Z,34.00
2019-06-01T11:57:04.560Z,34.40
2019-06-01T12:01:59.132Z,33.50
2019-06-01T12:06:53.077Z,33.20
2019-06-01T12:11:47.104Z,33.20
2019-06-01T12:16:42.538Z,32.70
2019-06-01T12:21:37.066Z,32.30
2019-06-01T12:26:31.047Z,32.30
2019-06-01T12:31:25.349Z,32.20
2019-06-01T12:36:19.192Z,32.10
2019-06-01T12:41:12.966Z,31.90
2019-06-01T12:46:07.941Z,31.40
2019-06-01T12:51:02.463Z,31.30
2019-06-01T12:55:56.191Z,31.10
2019-06-01T13:00:50.156Z,30.70
2019-06-01T13:05:45.464Z,30.50
2019-06-01T13:10:41.053Z,30.40
2019-06-01T13:15:35.121Z,30.20
2019-06-01T13:20:29.147Z,30.00
2019-06-01T13:25:22.960Z,29.90
2019-06-01T13:30:20.162Z,29.70
2019-06-01T13:35:16.302Z,29.80
2019-06-01T13:40:10.671Z,29.60
2019-06-01T13:45:07.844Z,29.80
2019-06-01T13:50:06.519Z,29.50
2019-06-01T13:54:59.520Z,29.50
2019-06-01T13:59:55.041Z,29.50
2019-06-01T14:04:49.824Z,29.50
2019-06-01T14:09:45.195Z,29.50
2019-06-01T14:14:39.236Z,29.60
2019-06-01T14:19:33.761Z,29.60
2019-06-01T14:24:27.754Z,29.60
2019-06-01T14:29:22.056Z,29.60
2019-06-01T14:34:16.661Z,29.40
2019-06-01T14:39:11.217Z,29.40
2019-06-01T14:44:05.617Z,29.20
2019-06-01T14:49:00.177Z,29.30
2019-06-01T14:53:57.960Z,29.30
2019-06-01T14:58:51.990Z,29.10
2019-06-01T15:03:46.046Z,28.90
2019-06-01T15:08:40.347Z,28.80
2019-06-01T15:13:34.329Z,28.80
2019-06-01T15:18:28.484Z,28.80
2019-06-01T15:23:22.863Z,28.80
2019-06-01T15:28:17.037Z,28.80
2019-06-01T15:33:13.225Z,28.80
2019-06-01T15:38:07.327Z,28.70
2019-06-01T15:43:01.634Z,28.70
2019-06-01T15:47:57.840Z,28.50
2019-06-01T15:52:53.014Z,28.50
2019-06-01T15:57:48.467Z,28.30
2019-06-01T16:02:43.696Z,28.20
2019-06-01T16:07:38.961Z,28.20
2019-06-01T16:12:33.112Z,28.10
2019-06-01T16:17:27.823Z,28.10
2019-06-01T16:22:23.398Z,28.00
2019-06-01T16:27:18.644Z,27.90
2019-06-01T16:32:12.452Z,27.70
2019-06-01T16:37:07.136Z,27.70
2019-06-01T16:42:03.879Z,27.60
2019-06-01T16:47:02.733Z,27.50
2019-06-01T16:51:59.092Z,27.40
2019-06-01T16:56:54.410Z,27.30
2019-06-01T17:01:49.094Z,27.20
2019-06-01T17:06:45.660Z,27.10
2019-06-01T17:11:40.068Z,27.00
2019-06-01T17:16:37.168Z,26.90
2019-06-01T17:21:32.246Z,26.80
2019-06-01T17:26:26.868Z,26.70
2019-06-01T17:31:21.175Z,26.50
2019-06-01T17:36:15.420Z,26.50
2019-06-01T17:41:09.999Z,26.30
2019-06-01T17:46:05.274Z,26.10
2019-06-01T17:51:00.526Z,26.10
2019-06-01T17:55:55.255Z,25.90
2019-06-01T18:00:50.009Z,25.80
2019-06-01T18:05:44.231Z,25.70
2019-06-01T18:10:52.554Z,25.50
2019-06-01T18:15:35.998Z,25.40
2019-06-01T18:20:31.874Z,25.20
2019-06-01T18:25:27.459Z,25.10
2019-06-01T18:30:23.057Z,24.90
2019-06-01T18:35:19.756Z,24.80
2019-06-01T18:40:13.999Z,24.60
2019-06-01T18:45:09.758Z,24.40
2019-06-01T18:50:05.793Z,24.20
2019-06-01T18:55:08.575Z,24.00
2019-06-01T19:00:12.005Z,23.80
2019-06-01T19:05:07.200Z,23.60
2019-06-01T19:10:02.227Z,23.40
2019-06-01T19:14:57.190Z,23.10
2019-06-01T19:19:53.281Z,22.90
2019-06-01T19:24:48.304Z,22.80
2019-06-01T19:29:43.813Z,22.60
2019-06-01T19:34:38.463Z,22.40
2019-06-01T19:39:33.306Z,22.30
2019-06-01T19:44:27.505Z,22.10
2019-06-01T19:49:22.542Z,22.00
2019-06-01T19:54:16.977Z,21.80
2019-06-01T19:59:11.770Z,21.60
2019-06-01T20:04:05.883Z,21.50
2019-06-01T20:09:00.737Z,21.30
2019-06-01T20:13:55.488Z,21.20
2019-06-01T20:18:50.371Z,21.00
2019-06-01T20:23:45.620Z,20.90
2019-06-01T20:28:39.640Z,20.70
2019-06-01T20:33:33.323Z,20.60
2019-06-01T20:38:27.259Z,20.50
2019-06-01T20:43:23.008Z,20.30
2019-06-01T20:48:19.229Z,20.20
2019-06-01T20:53:16.815Z,20.10
2019-06-01T20:58:13.361Z,20.00
2019-06-01T21:03:08.279Z,19.90
2019-06-01T21:08:02.164Z,19.70
2019-06-01T21:12:56.931Z,19.60
2019-06-01T21:17:51.151Z,19.50
2019-06-01T21:22:45.700Z,19.40
2019-06-01T21:27:39.978Z,19.30
2019-06-01T21:32:34.615Z,19.20
2019-06-01T21:37:29.516Z,19.10
2019-06-01T21:42:24.286Z,19.00
2019-06-01T21:47:19.593Z,18.90
2019-06-01T21:52:13.591Z,18.80
2019-06-01T21:57:09.516Z,18.80
2019-06-01T22:02:03.330Z,18.70
2019-06-01T22:06:57.319Z,18.70
2019-06-01T22:11:51.093Z,18.70
2019-06-01T22:16:45.438Z,18.70
2019-06-01T22:21:40.472Z,18.60
2019-06-01T22:26:35.672Z,18.50
2019-06-01T22:31:30.076Z,18.50
2019-06-01T22:36:25.163Z,18.40
2019-06-01T22:41:19.879Z,18.40
2019-06-01T22:46:16.047Z,18.40
2019-06-01T22:51:10.248Z,18.30
2019-06-01T22:56:05.976Z,18.30
2019-06-01T23:01:00.499Z,18.30
2019-06-01T23:05:56.441Z,18.20
2019-06-01T23:10:51.754Z,18.10
2019-06-01T23:15:45.815Z,18.10
2019-06-01T23:20:41.510Z,18.00
2019-06-01T23:25:35.899Z,18.00
2019-06-01T23:30:32.333Z,17.90
2019-06-01T23:35:28.583Z,17.90
2019-06-01T23:40:22.538Z,17.80
2019-06-01T23:45:17.950Z,17.70
2019-06-01T23:50:13.045Z,17.60
2019-06-01T23:55:07.889Z,17.50
